sensor_id;sensor_type;location;lat;lon;timestamp;temperature;humidity
32476;DHT22;18929;48.008;10.882;2022-09-20T00:00:37;13.30;99.90
32476;DHT22;18929;48.008;10.882;2022-09-20T00:03:04;13.20;99.90
32476;DHT22;18929;48.008;10.882;2022-09-20T00:05:33;13.20;99.90
32476;DHT22;18929;48.008;10.882;2022-09-20T00:08:01;13.00;99.90
32476;DHT22;18929;48.008;10.882;2022-09-20T00:10:28;12.90;99.90
32476;DHT22;18929;48.008;10.882;2022-09-20T00:12:56;13.00;99.90
32476;DHT22;18929;48.008;10.882;2022-09-20T00:15:24;13.10;99.90
32476;DHT22;18929;48.008;10.882;2022-09-20T00:17:51;13.20;99.90
32476;DHT22;18929;48.008;10.882;2022-09-20T00:20:18;13.30;99.90
32476;DHT22;18929;48.008;10.882;2022-09-20T00:22:45;13.20;99.90
32476;DHT22;18929;48.008;10.882;2022-09-20T00:25:14;13.10;99.90
32476;DHT22;18929;48.008;10.882;2022-09-20T00:27:41;13.00;99.90
32476;DHT22;18929;48.008;10.882;2022-09-20T00:30:09;12.60;99.90
32476;DHT22;18929;48.008;10.882;2022-09-20T00:32:37;12.90;99.90
32476;DHT22;18929;48.008;10.882;2022-09-20T00:35:05;13.00;99.90
32476;DHT22;18929;48.008;10.882;2022-09-20T00:37:37;12.90;99.90
32476;DHT22;18929;48.008;10.882;2022-09-20T00:40:06;12.90;99.90
32476;DHT22;18929;48.008;10.882;2022-09-20T00:42:34;12.90;99.90
32476;DHT22;18929;48.008;10.882;2022-09-20T00:45:02;13.00;99.90
32476;DHT22;18929;48.008;10.882;2022-09-20T00:47:40;13.10;99.90
32476;DHT22;18929;48.008;10.882;2022-09-20T00:50:17;12.80;99.90
32476;DHT22;18929;48.008;10.882;2022-09-20T00:52:53;13.00;99.90
32476;DHT22;18929;48.008;10.882;2022-09-20T00:55:21;13.10;99.90
32476;DHT22;18929;48.008;10.882;2022-09-20T00:57:48;13.00;99.90
32476;DHT22;18929;48.008;10.882;2022-09-20T01:00:16;12.90;99.90
32476;DHT22;18929;48.008;10.882;2022-09-20T01:02:47;12.90;99.90
32476;DHT22;18929;48.008;10.882;2022-09-20T01:05:16;12.90;99.90
32476;DHT22;18929;48.008;10.882;2022-09-20T01:07:45;13.00;99.90
32476;DHT22;18929;48.008;10.882;2022-09-20T01:10:13;12.50;99.90
32476;DHT22;18929;48.008;10.882;2022-09-20T01:12:42;12.70;99.90
32476;DHT22;18929;48.008;10.882;2022-09-20T01:15:11;12.70;99.90
32476;DHT22;18929;48.008;10.882;2022-09-20T01:17:43;12.80;99.90
32476;DHT22;18929;48.008;10.882;2022-09-20T01:20:16;12.70;99.90
32476;DHT22;18929;48.008;10.882;2022-09-20T01:22:52;11.60;99.90
32476;DHT22;18929;48.008;10.882;2022-09-20T01:25:32;12.20;99.90
32476;DHT22;18929;48.008;10.882;2022-09-20T01:28:07;12.50;99.90
32476;DHT22;18929;48.008;10.882;2022-09-20T01:30:39;12.60;99.90
32476;DHT22;18929;48.008;10.882;2022-09-20T01:33:13;12.70;99.90
32476;DHT22;18929;48.008;10.882;2022-09-20T01:35:46;12.60;99.90
32476;DHT22;18929;48.008;10.882;2022-09-20T01:38:25;12.70;99.90
32476;DHT22;18929;48.008;10.882;2022-09-20T01:41:00;12.70;99.90
32476;DHT22;18929;48.008;10.882;2022-09-20T01:43:34;12.70;99.90
32476;DHT22;18929;48.008;10.882;2022-09-20T01:46:12;12.70;99.90
32476;DHT22;18929;48.008;10.882;2022-09-20T01:48:43;12.60;99.90
32476;DHT22;18929;48.008;10.882;2022-09-20T01:51:32;12.60;99.90
32476;DHT22;18929;48.008;10.882;2022-09-20T01:57:24;12.20;99.90
32476;DHT22;18929;48.008;10.882;2022-09-20T02:00:14;12.50;99.90
32476;DHT22;18929;48.008;10.882;2022-09-20T02:03:08;12.40;99.90
32476;DHT22;18929;48.008;10.882;2022-09-20T02:09:27;12.30;99.90
32476;DHT22;18929;48.008;10.882;2022-09-20T02:12:11;11.30;99.90
32476;DHT22;18929;48.008;10.882;2022-09-20T02:14:50;11.80;99.90
32476;DHT22;18929;48.008;10.882;2022-09-20T02:17:23;12.00;99.90
32476;DHT22;18929;48.008;10.882;2022-09-20T02:20:06;12.10;99.90
32476;DHT22;18929;48.008;10.882;2022-09-20T02:23:04;12.10;99.90
32476;DHT22;18929;48.008;10.882;2022-09-20T02:25:48;12.10;99.90
32476;DHT22;18929;48.008;10.882;2022-09-20T02:28:28;12.20;99.90
32476;DHT22;18929;48.008;10.882;2022-09-20T02:31:06;12.10;99.90
32476;DHT22;18929;48.008;10.882;2022-09-20T02:33:56;12.10;99.90
32476;DHT22;18929;48.008;10.882;2022-09-20T02:36:36;12.00;99.90
32476;DHT22;18929;48.008;10.882;2022-09-20T02:39:10;12.00;99.90
32476;DHT22;18929;48.008;10.882;2022-09-20T02:42:03;12.00;99.90
32476;DHT22;18929;48.008;10.882;2022-09-20T02:44:47;12.00;99.90
32476;DHT22;18929;48.008;10.882;2022-09-20T02:47:25;11.90;99.90
32476;DHT22;18929;48.008;10.882;2022-09-20T02:50:16;12.00;99.90
32476;DHT22;18929;48.008;10.882;2022-09-20T02:52:53;11.90;99.90
32476;DHT22;18929;48.008;10.882;2022-09-20T02:55:33;11.90;99.90
32476;DHT22;18929;48.008;10.882;2022-09-20T02:58:15;11.90;99.90
32476;DHT22;18929;48.008;10.882;2022-09-20T03:00:52;11.80;99.90
32476;DHT22;18929;48.008;10.882;2022-09-20T03:03:29;11.80;99.90
32476;DHT22;18929;48.008;10.882;2022-09-20T03:06:08;11.90;99.90
32476;DHT22;18929;48.008;10.882;2022-09-20T03:08:40;11.80;99.90
32476;DHT22;18929;48.008;10.882;2022-09-20T03:11:18;11.90;99.90
32476;DHT22;18929;48.008;10.882;2022-09-20T03:14:02;11.70;99.90
32476;DHT22;18929;48.008;10.882;2022-09-20T03:16:39;11.70;99.90
32476;DHT22;18929;48.008;10.882;2022-09-20T03:19:16;11.80;99.90
32476;DHT22;18929;48.008;10.882;2022-09-20T03:21:59;11.70;99.90
32476;DHT22;18929;48.008;10.882;2022-09-20T03:24:38;11.70;99.90
32476;DHT22;18929;48.008;10.882;2022-09-20T03:27:15;11.60;99.90
32476;DHT22;18929;48.008;10.882;2022-09-20T03:29:56;11.70;99.90
32476;DHT22;18929;48.008;10.882;2022-09-20T03:32:47;11.70;99.90
32476;DHT22;18929;48.008;10.882;2022-09-20T03:35:27;11.70;99.90
32476;DHT22;18929;48.008;10.882;2022-09-20T03:38:14;11.60;99.90
32476;DHT22;18929;48.008;10.882;2022-09-20T03:41:00;11.70;99.90
32476;DHT22;18929;48.008;10.882;2022-09-20T03:43:40;11.60;99.90
32476;DHT22;18929;48.008;10.882;2022-09-20T03:46:16;11.60;99.90
32476;DHT22;18929;48.008;10.882;2022-09-20T03:49:01;11.60;99.90
32476;DHT22;18929;48.008;10.882;2022-09-20T03:51:36;11.60;99.90
32476;DHT22;18929;48.008;10.882;2022-09-20T03:54:42;11.60;99.90
32476;DHT22;18929;48.008;10.882;2022-09-20T04:00:20;11.60;99.90
32476;DHT22;18929;48.008;10.882;2022-09-20T04:02:59;11.50;99.90
32476;DHT22;18929;48.008;10.882;2022-09-20T04:05:37;11.50;99.90
32476;DHT22;18929;48.008;10.882;2022-09-20T04:08:15;11.50;99.90
32476;DHT22;18929;48.008;10.882;2022-09-20T04:10:53;11.50;99.90
32476;DHT22;18929;48.008;10.882;2022-09-20T04:13:34;11.30;99.90
32476;DHT22;18929;48.008;10.882;2022-09-20T04:16:13;11.30;99.90
32476;DHT22;18929;48.008;10.882;2022-09-20T04:18:47;11.20;99.90
32476;DHT22;18929;48.008;10.882;2022-09-20T04:21:20;11.30;99.90
32476;DHT22;18929;48.008;10.882;2022-09-20T04:23:55;11.20;99.90
32476;DHT22;18929;48.008;10.882;2022-09-20T04:26:28;11.20;99.90
32476;DHT22;18929;48.008;10.882;2022-09-20T04:29:01;11.20;99.90
32476;DHT22;18929;48.008;10.882;2022-09-20T04:31:35;11.20;99.90
32476;DHT22;18929;48.008;10.882;2022-09-20T04:34:11;11.20;99.90
32476;DHT22;18929;48.008;10.882;2022-09-20T04:36:56;11.20;99.90
32476;DHT22;18929;48.008;10.882;2022-09-20T04:39:34;11.20;99.90
32476;DHT22;18929;48.008;10.882;2022-09-20T04:42:45;11.20;99.90
32476;DHT22;18929;48.008;10.882;2022-09-20T04:45:34;11.20;99.90
32476;DHT22;18929;48.008;10.882;2022-09-20T04:57:39;11.20;99.90
32476;DHT22;18929;48.008;10.882;2022-09-20T05:00:15;11.20;99.90
32476;DHT22;18929;48.008;10.882;2022-09-20T05:03:19;11.20;99.90
32476;DHT22;18929;48.008;10.882;2022-09-20T05:06:21;11.10;99.90
32476;DHT22;18929;48.008;10.882;2022-09-20T05:09:15;11.10;99.90
32476;DHT22;18929;48.008;10.882;2022-09-20T05:11:55;11.10;99.90
32476;DHT22;18929;48.008;10.882;2022-09-20T05:15:03;11.10;99.90
32476;DHT22;18929;48.008;10.882;2022-09-20T05:17:53;11.10;99.90
32476;DHT22;18929;48.008;10.882;2022-09-20T05:20:41;11.00;99.90
32476;DHT22;18929;48.008;10.882;2022-09-20T05:23:27;11.10;99.90
32476;DHT22;18929;48.008;10.882;2022-09-20T05:26:06;11.00;99.90
32476;DHT22;18929;48.008;10.882;2022-09-20T05:28:43;11.00;99.90
32476;DHT22;18929;48.008;10.882;2022-09-20T05:31:17;11.00;99.90
32476;DHT22;18929;48.008;10.882;2022-09-20T05:33:51;11.00;99.90
32476;DHT22;18929;48.008;10.882;2022-09-20T05:36:28;11.00;99.90
32476;DHT22;18929;48.008;10.882;2022-09-20T05:39:03;11.00;99.90
32476;DHT22;18929;48.008;10.882;2022-09-20T05:41:39;10.80;99.90
32476;DHT22;18929;48.008;10.882;2022-09-20T05:44:17;11.00;99.90
32476;DHT22;18929;48.008;10.882;2022-09-20T05:46:55;10.90;99.90
32476;DHT22;18929;48.008;10.882;2022-09-20T05:49:40;10.70;99.90
32476;DHT22;18929;48.008;10.882;2022-09-20T05:52:28;10.90;99.90
32476;DHT22;18929;48.008;10.882;2022-09-20T05:55:17;11.00;99.90
32476;DHT22;18929;48.008;10.882;2022-09-20T05:57:58;11.00;99.90
32476;DHT22;18929;48.008;10.882;2022-09-20T06:00:31;11.00;99.90
32476;DHT22;18929;48.008;10.882;2022-09-20T06:03:09;11.10;99.90
32476;DHT22;18929;48.008;10.882;2022-09-20T06:05:54;11.00;99.90
32476;DHT22;18929;48.008;10.882;2022-09-20T06:08:37;11.10;99.90
32476;DHT22;18929;48.008;10.882;2022-09-20T06:11:19;11.10;99.90
32476;DHT22;18929;48.008;10.882;2022-09-20T06:14:00;11.20;99.90
32476;DHT22;18929;48.008;10.882;2022-09-20T06:16:39;11.20;99.90
32476;DHT22;18929;48.008;10.882;2022-09-20T06:19:17;11.20;99.90
32476;DHT22;18929;48.008;10.882;2022-09-20T06:21:51;11.00;99.90
32476;DHT22;18929;48.008;10.882;2022-09-20T06:24:34;10.90;99.90
32476;DHT22;18929;48.008;10.882;2022-09-20T06:27:07;10.70;99.90
32476;DHT22;18929;48.008;10.882;2022-09-20T06:29:38;10.60;99.90
32476;DHT22;18929;48.008;10.882;2022-09-20T06:32:05;10.70;99.90
32476;DHT22;18929;48.008;10.882;2022-09-20T06:34:54;11.10;99.90
32476;DHT22;18929;48.008;10.882;2022-09-20T06:37:37;10.20;99.90
32476;DHT22;18929;48.008;10.882;2022-09-20T06:40:36;10.70;99.90
32476;DHT22;18929;48.008;10.882;2022-09-20T06:46:13;10.90;99.90
32476;DHT22;18929;48.008;10.882;2022-09-20T06:48:40;10.90;99.90
32476;DHT22;18929;48.008;10.882;2022-09-20T06:51:08;10.70;99.90
32476;DHT22;18929;48.008;10.882;2022-09-20T06:53:39;10.50;99.90
32476;DHT22;18929;48.008;10.882;2022-09-20T06:56:07;10.70;99.90
32476;DHT22;18929;48.008;10.882;2022-09-20T06:58:35;10.60;99.90
32476;DHT22;18929;48.008;10.882;2022-09-20T07:01:02;10.70;99.90
32476;DHT22;18929;48.008;10.882;2022-09-20T07:03:29;10.70;99.90
32476;DHT22;18929;48.008;10.882;2022-09-20T07:05:56;10.60;99.90
32476;DHT22;18929;48.008;10.882;2022-09-20T07:08:25;10.60;99.90
32476;DHT22;18929;48.008;10.882;2022-09-20T07:10:53;10.80;99.90
32476;DHT22;18929;48.008;10.882;2022-09-20T07:13:21;10.90;99.90
32476;DHT22;18929;48.008;10.882;2022-09-20T07:15:48;10.70;99.90
32476;DHT22;18929;48.008;10.882;2022-09-20T07:18:15;10.90;99.90
32476;DHT22;18929;48.008;10.882;2022-09-20T07:20:42;11.00;99.90
32476;DHT22;18929;48.008;10.882;2022-09-20T07:23:09;11.20;99.90
32476;DHT22;18929;48.008;10.882;2022-09-20T07:25:37;11.00;99.90
32476;DHT22;18929;48.008;10.882;2022-09-20T07:28:05;10.60;99.90
32476;DHT22;18929;48.008;10.882;2022-09-20T07:30:32;10.60;99.90
32476;DHT22;18929;48.008;10.882;2022-09-20T07:32:59;10.70;99.90
32476;DHT22;18929;48.008;10.882;2022-09-20T07:35:27;10.70;99.90
32476;DHT22;18929;48.008;10.882;2022-09-20T07:37:57;10.60;99.90
32476;DHT22;18929;48.008;10.882;2022-09-20T07:40:24;10.40;99.90
32476;DHT22;18929;48.008;10.882;2022-09-20T07:42:52;10.60;99.90
32476;DHT22;18929;48.008;10.882;2022-09-20T07:45:20;10.80;99.90
32476;DHT22;18929;48.008;10.882;2022-09-20T07:47:49;10.80;99.90
32476;DHT22;18929;48.008;10.882;2022-09-20T07:50:17;10.50;99.90
32476;DHT22;18929;48.008;10.882;2022-09-20T07:52:44;10.40;99.90
32476;DHT22;18929;48.008;10.882;2022-09-20T07:55:11;10.60;99.90
32476;DHT22;18929;48.008;10.882;2022-09-20T07:57:38;10.60;99.90
32476;DHT22;18929;48.008;10.882;2022-09-20T08:00:07;10.70;99.90
32476;DHT22;18929;48.008;10.882;2022-09-20T08:02:36;10.30;99.90
32476;DHT22;18929;48.008;10.882;2022-09-20T08:05:03;10.60;99.90
32476;DHT22;18929;48.008;10.882;2022-09-20T08:07:45;10.80;99.90
32476;DHT22;18929;48.008;10.882;2022-09-20T08:10:12;10.70;99.90
32476;DHT22;18929;48.008;10.882;2022-09-20T08:12:39;10.90;99.90
32476;DHT22;18929;48.008;10.882;2022-09-20T08:15:07;11.00;99.90
32476;DHT22;18929;48.008;10.882;2022-09-20T08:17:35;10.60;99.90
32476;DHT22;18929;48.008;10.882;2022-09-20T08:20:03;10.80;99.90
32476;DHT22;18929;48.008;10.882;2022-09-20T08:22:49;11.00;99.90
32476;DHT22;18929;48.008;10.882;2022-09-20T08:25:16;11.10;99.90
32476;DHT22;18929;48.008;10.882;2022-09-20T08:27:43;11.30;99.90
32476;DHT22;18929;48.008;10.882;2022-09-20T08:30:10;11.20;99.90
32476;DHT22;18929;48.008;10.882;2022-09-20T08:32:39;10.80;99.90
32476;DHT22;18929;48.008;10.882;2022-09-20T08:35:07;10.70;99.90
32476;DHT22;18929;48.008;10.882;2022-09-20T08:37:37;10.60;99.90
32476;DHT22;18929;48.008;10.882;2022-09-20T08:40:05;10.50;99.90
32476;DHT22;18929;48.008;10.882;2022-09-20T08:42:34;10.30;99.90
32476;DHT22;18929;48.008;10.882;2022-09-20T08:45:04;10.50;99.90
32476;DHT22;18929;48.008;10.882;2022-09-20T08:47:33;10.60;99.90
32476;DHT22;18929;48.008;10.882;2022-09-20T08:50:05;10.60;99.90
32476;DHT22;18929;48.008;10.882;2022-09-20T08:52:34;10.60;99.90
32476;DHT22;18929;48.008;10.882;2022-09-20T08:55:14;10.60;99.90
32476;DHT22;18929;48.008;10.882;2022-09-20T08:57:42;10.60;99.90
32476;DHT22;18929;48.008;10.882;2022-09-20T09:00:15;10.40;99.90
32476;DHT22;18929;48.008;10.882;2022-09-20T09:06:09;10.50;99.90
32476;DHT22;18929;48.008;10.882;2022-09-20T09:08:37;10.80;99.90
32476;DHT22;18929;48.008;10.882;2022-09-20T09:11:06;10.90;99.90
32476;DHT22;18929;48.008;10.882;2022-09-20T09:13:38;10.50;99.90
32476;DHT22;18929;48.008;10.882;2022-09-20T09:16:11;10.70;99.90
32476;DHT22;18929;48.008;10.882;2022-09-20T09:18:41;10.80;99.90
32476;DHT22;18929;48.008;10.882;2022-09-20T09:21:17;10.80;99.90
32476;DHT22;18929;48.008;10.882;2022-09-20T09:23:49;10.80;99.90
32476;DHT22;18929;48.008;10.882;2022-09-20T09:26:19;10.70;99.90
32476;DHT22;18929;48.008;10.882;2022-09-20T09:29:11;10.60;99.90
32476;DHT22;18929;48.008;10.882;2022-09-20T09:31:40;10.70;99.90
32476;DHT22;18929;48.008;10.882;2022-09-20T09:34:23;10.50;99.90
32476;DHT22;18929;48.008;10.882;2022-09-20T09:36:52;10.40;99.90
32476;DHT22;18929;48.008;10.882;2022-09-20T09:42:50;10.70;99.90
32476;DHT22;18929;48.008;10.882;2022-09-20T09:45:27;10.50;99.90
32476;DHT22;18929;48.008;10.882;2022-09-20T09:47:56;11.00;99.90
32476;DHT22;18929;48.008;10.882;2022-09-20T09:50:26;11.00;99.90
32476;DHT22;18929;48.008;10.882;2022-09-20T09:53:08;10.80;99.90
32476;DHT22;18929;48.008;10.882;2022-09-20T09:56:03;11.00;99.90
32476;DHT22;18929;48.008;10.882;2022-09-20T09:58:40;11.20;99.90
32476;DHT22;18929;48.008;10.882;2022-09-20T10:01:23;11.30;99.90
32476;DHT22;18929;48.008;10.882;2022-09-20T10:03:56;10.60;99.90
32476;DHT22;18929;48.008;10.882;2022-09-20T10:06:32;10.70;99.90
32476;DHT22;18929;48.008;10.882;2022-09-20T10:09:13;10.70;99.90
32476;DHT22;18929;48.008;10.882;2022-09-20T10:12:01;10.80;99.90
32476;DHT22;18929;48.008;10.882;2022-09-20T10:14:52;11.00;99.90
32476;DHT22;18929;48.008;10.882;2022-09-20T10:17:33;11.10;99.90
32476;DHT22;18929;48.008;10.882;2022-09-20T10:20:14;11.00;99.90
32476;DHT22;18929;48.008;10.882;2022-09-20T10:22:50;10.90;99.90
32476;DHT22;18929;48.008;10.882;2022-09-20T10:25:34;11.10;99.90
32476;DHT22;18929;48.008;10.882;2022-09-20T10:28:20;10.90;99.90
32476;DHT22;18929;48.008;10.882;2022-09-20T10:30:58;10.90;99.90
32476;DHT22;18929;48.008;10.882;2022-09-20T10:33:32;11.00;99.90
32476;DHT22;18929;48.008;10.882;2022-09-20T10:36:03;10.90;99.90
32476;DHT22;18929;48.008;10.882;2022-09-20T10:38:36;11.20;99.90
32476;DHT22;18929;48.008;10.882;2022-09-20T10:41:13;11.20;99.90
32476;DHT22;18929;48.008;10.882;2022-09-20T10:44:08;10.60;99.90
32476;DHT22;18929;48.008;10.882;2022-09-20T10:46:51;11.00;99.90
32476;DHT22;18929;48.008;10.882;2022-09-20T10:49:26;11.00;99.90
32476;DHT22;18929;48.008;10.882;2022-09-20T10:55:00;11.40;99.90
32476;DHT22;18929;48.008;10.882;2022-09-20T10:57:51;11.50;99.90
32476;DHT22;18929;48.008;10.882;2022-09-20T11:00:24;11.20;99.90
32476;DHT22;18929;48.008;10.882;2022-09-20T11:03:08;11.30;99.90
32476;DHT22;18929;48.008;10.882;2022-09-20T11:05:49;10.70;99.90
32476;DHT22;18929;48.008;10.882;2022-09-20T11:08:19;11.30;99.90
32476;DHT22;18929;48.008;10.882;2022-09-20T11:10:53;11.30;99.90
32476;DHT22;18929;48.008;10.882;2022-09-20T11:13:25;11.50;99.90
32476;DHT22;18929;48.008;10.882;2022-09-20T11:15:57;11.60;99.90
32476;DHT22;18929;48.008;10.882;2022-09-20T11:18:30;11.60;99.90
32476;DHT22;18929;48.008;10.882;2022-09-20T11:21:05;11.60;99.90
32476;DHT22;18929;48.008;10.882;2022-09-20T11:23:43;11.90;99.90
32476;DHT22;18929;48.008;10.882;2022-09-20T11:26:21;11.60;99.90
32476;DHT22;18929;48.008;10.882;2022-09-20T11:28:53;11.40;99.90
32476;DHT22;18929;48.008;10.882;2022-09-20T11:31:25;11.40;99.90
32476;DHT22;18929;48.008;10.882;2022-09-20T11:33:59;11.60;99.90
32476;DHT22;18929;48.008;10.882;2022-09-20T11:36:32;11.80;99.90
32476;DHT22;18929;48.008;10.882;2022-09-20T11:39:12;11.80;99.90
32476;DHT22;18929;48.008;10.882;2022-09-20T11:41:41;11.80;99.90
32476;DHT22;18929;48.008;10.882;2022-09-20T11:44:15;11.80;99.90
32476;DHT22;18929;48.008;10.882;2022-09-20T11:47:06;11.90;99.90
32476;DHT22;18929;48.008;10.882;2022-09-20T11:49:46;11.90;99.90
32476;DHT22;18929;48.008;10.882;2022-09-20T11:52:33;12.00;99.90
32476;DHT22;18929;48.008;10.882;2022-09-20T11:55:20;12.10;99.90
32476;DHT22;18929;48.008;10.882;2022-09-20T11:58:01;12.30;99.90
32476;DHT22;18929;48.008;10.882;2022-09-20T12:00:32;11.90;99.90
32476;DHT22;18929;48.008;10.882;2022-09-20T12:03:01;12.00;99.90
32476;DHT22;18929;48.008;10.882;2022-09-20T12:05:30;11.90;99.90
32476;DHT22;18929;48.008;10.882;2022-09-20T12:08:19;11.70;99.90
32476;DHT22;18929;48.008;10.882;2022-09-20T12:10:55;11.80;99.90
32476;DHT22;18929;48.008;10.882;2022-09-20T12:13:25;11.70;99.90
32476;DHT22;18929;48.008;10.882;2022-09-20T12:16:00;11.80;99.90
32476;DHT22;18929;48.008;10.882;2022-09-20T12:18:37;12.00;99.90
32476;DHT22;18929;48.008;10.882;2022-09-20T12:21:13;11.70;99.90
32476;DHT22;18929;48.008;10.882;2022-09-20T12:26:52;12.20;99.90
32476;DHT22;18929;48.008;10.882;2022-09-20T12:30:03;11.80;99.90
32476;DHT22;18929;48.008;10.882;2022-09-20T12:32:51;12.40;99.90
32476;DHT22;18929;48.008;10.882;2022-09-20T12:38:37;12.20;99.90
32476;DHT22;18929;48.008;10.882;2022-09-20T12:41:12;12.10;99.90
32476;DHT22;18929;48.008;10.882;2022-09-20T12:43:52;12.20;99.90
32476;DHT22;18929;48.008;10.882;2022-09-20T12:46:26;12.30;99.90
32476;DHT22;18929;48.008;10.882;2022-09-20T12:52:47;12.30;99.90
32476;DHT22;18929;48.008;10.882;2022-09-20T12:55:38;12.20;99.90
32476;DHT22;18929;48.008;10.882;2022-09-20T12:58:21;12.20;99.90
32476;DHT22;18929;48.008;10.882;2022-09-20T13:01:25;12.50;99.90
32476;DHT22;18929;48.008;10.882;2022-09-20T13:03:39;12.70;99.90
32476;DHT22;18929;48.008;10.882;2022-09-20T13:06:24;12.80;99.90
32476;DHT22;18929;48.008;10.882;2022-09-20T13:08:59;12.80;99.90
32476;DHT22;18929;48.008;10.882;2022-09-20T13:11:34;13.20;99.90
32476;DHT22;18929;48.008;10.882;2022-09-20T13:14:09;13.00;99.90
32476;DHT22;18929;48.008;10.882;2022-09-20T13:16:44;12.80;99.90
32476;DHT22;18929;48.008;10.882;2022-09-20T13:19:15;12.80;99.90
32476;DHT22;18929;48.008;10.882;2022-09-20T13:21:51;12.90;99.90
32476;DHT22;18929;48.008;10.882;2022-09-20T13:24:20;12.90;99.90
32476;DHT22;18929;48.008;10.882;2022-09-20T13:26:50;13.10;99.90
32476;DHT22;18929;48.008;10.882;2022-09-20T13:29:23;13.30;99.90
32476;DHT22;18929;48.008;10.882;2022-09-20T13:31:52;12.80;99.90
32476;DHT22;18929;48.008;10.882;2022-09-20T13:34:22;12.60;99.90
32476;DHT22;18929;48.008;10.882;2022-09-20T13:36:53;12.90;99.90
32476;DHT22;18929;48.008;10.882;2022-09-20T13:39:28;13.10;99.90
32476;DHT22;18929;48.008;10.882;2022-09-20T13:41:59;12.70;99.90
32476;DHT22;18929;48.008;10.882;2022-09-20T13:44:29;13.00;99.90
32476;DHT22;18929;48.008;10.882;2022-09-20T13:46:58;13.00;99.90
32476;DHT22;18929;48.008;10.882;2022-09-20T13:49:30;13.30;99.90
32476;DHT22;18929;48.008;10.882;2022-09-20T13:51:57;13.50;99.90
32476;DHT22;18929;48.008;10.882;2022-09-20T13:54:28;13.00;99.90
32476;DHT22;18929;48.008;10.882;2022-09-20T13:56:57;13.10;99.90
32476;DHT22;18929;48.008;10.882;2022-09-20T13:59:29;13.20;99.90
32476;DHT22;18929;48.008;10.882;2022-09-20T14:01:58;13.50;99.90
32476;DHT22;18929;48.008;10.882;2022-09-20T14:04:28;13.40;99.90
32476;DHT22;18929;48.008;10.882;2022-09-20T14:06:56;13.30;99.90
32476;DHT22;18929;48.008;10.882;2022-09-20T14:09:27;13.60;99.90
32476;DHT22;18929;48.008;10.882;2022-09-20T14:11:57;13.60;99.90
32476;DHT22;18929;48.008;10.882;2022-09-20T14:14:24;13.80;99.90
32476;DHT22;18929;48.008;10.882;2022-09-20T14:16:54;13.50;99.90
32476;DHT22;18929;48.008;10.882;2022-09-20T14:19:26;12.90;99.90
32476;DHT22;18929;48.008;10.882;2022-09-20T14:21:56;13.40;99.90
32476;DHT22;18929;48.008;10.882;2022-09-20T14:24:28;13.50;99.90
32476;DHT22;18929;48.008;10.882;2022-09-20T14:27:10;13.70;99.90
32476;DHT22;18929;48.008;10.882;2022-09-20T14:29:40;13.40;99.90
32476;DHT22;18929;48.008;10.882;2022-09-20T14:32:16;13.80;99.90
32476;DHT22;18929;48.008;10.882;2022-09-20T14:34:48;14.30;99.90
32476;DHT22;18929;48.008;10.882;2022-09-20T14:37:22;14.30;99.90
32476;DHT22;18929;48.008;10.882;2022-09-20T14:39:54;13.80;99.90
32476;DHT22;18929;48.008;10.882;2022-09-20T14:42:25;13.90;99.90
32476;DHT22;18929;48.008;10.882;2022-09-20T14:44:54;13.80;99.90
32476;DHT22;18929;48.008;10.882;2022-09-20T14:47:30;14.20;99.90
32476;DHT22;18929;48.008;10.882;2022-09-20T14:50:01;14.00;99.90
32476;DHT22;18929;48.008;10.882;2022-09-20T14:52:37;14.20;99.90
32476;DHT22;18929;48.008;10.882;2022-09-20T14:55:22;14.60;99.90
32476;DHT22;18929;48.008;10.882;2022-09-20T14:57:56;14.60;99.90
32476;DHT22;18929;48.008;10.882;2022-09-20T15:00:24;14.10;99.90
32476;DHT22;18929;48.008;10.882;2022-09-20T15:02:52;14.10;99.90
32476;DHT22;18929;48.008;10.882;2022-09-20T15:05:22;13.70;99.90
32476;DHT22;18929;48.008;10.882;2022-09-20T15:07:51;13.50;99.90
32476;DHT22;18929;48.008;10.882;2022-09-20T15:10:20;14.00;99.90
32476;DHT22;18929;48.008;10.882;2022-09-20T15:12:47;14.40;99.90
32476;DHT22;18929;48.008;10.882;2022-09-20T15:15:16;13.80;99.90
32476;DHT22;18929;48.008;10.882;2022-09-20T15:17:45;13.90;99.90
32476;DHT22;18929;48.008;10.882;2022-09-20T15:20:14;13.70;99.90
32476;DHT22;18929;48.008;10.882;2022-09-20T15:22:43;14.10;99.90
32476;DHT22;18929;48.008;10.882;2022-09-20T15:25:15;14.10;99.90
32476;DHT22;18929;48.008;10.882;2022-09-20T15:27:45;14.30;99.90
32476;DHT22;18929;48.008;10.882;2022-09-20T15:30:14;13.60;99.90
32476;DHT22;18929;48.008;10.882;2022-09-20T15:32:42;13.90;99.90
32476;DHT22;18929;48.008;10.882;2022-09-20T15:35:09;14.10;99.90
32476;DHT22;18929;48.008;10.882;2022-09-20T15:37:37;13.70;99.90
32476;DHT22;18929;48.008;10.882;2022-09-20T15:40:05;14.30;99.90
32476;DHT22;18929;48.008;10.882;2022-09-20T15:42:33;14.00;99.90
32476;DHT22;18929;48.008;10.882;2022-09-20T15:45:07;14.30;99.90
32476;DHT22;18929;48.008;10.882;2022-09-20T15:47:35;14.00;99.90
32476;DHT22;18929;48.008;10.882;2022-09-20T15:50:03;13.70;99.90
32476;DHT22;18929;48.008;10.882;2022-09-20T15:52:35;14.00;99.90
32476;DHT22;18929;48.008;10.882;2022-09-20T15:57:54;14.00;99.90
32476;DHT22;18929;48.008;10.882;2022-09-20T16:00:22;13.90;99.90
32476;DHT22;18929;48.008;10.882;2022-09-20T16:02:49;14.60;99.90
32476;DHT22;18929;48.008;10.882;2022-09-20T16:05:16;15.60;99.90
32476;DHT22;18929;48.008;10.882;2022-09-20T16:07:43;15.80;99.90
32476;DHT22;18929;48.008;10.882;2022-09-20T16:10:10;16.20;99.90
32476;DHT22;18929;48.008;10.882;2022-09-20T16:12:37;15.70;99.70
32476;DHT22;18929;48.008;10.882;2022-09-20T16:15:05;15.60;99.90
32476;DHT22;18929;48.008;10.882;2022-09-20T16:17:34;15.30;96.80
32476;DHT22;18929;48.008;10.882;2022-09-20T16:20:18;15.40;99.90
32476;DHT22;18929;48.008;10.882;2022-09-20T16:22:46;14.80;99.90
32476;DHT22;18929;48.008;10.882;2022-09-20T16:25:13;15.10;99.90
32476;DHT22;18929;48.008;10.882;2022-09-20T16:27:40;13.40;99.80
32476;DHT22;18929;48.008;10.882;2022-09-20T16:30:08;14.60;99.90
32476;DHT22;18929;48.008;10.882;2022-09-20T16:32:36;14.00;99.10
32476;DHT22;18929;48.008;10.882;2022-09-20T16:35:04;13.20;99.90
32476;DHT22;18929;48.008;10.882;2022-09-20T16:37:32;13.40;99.90
32476;DHT22;18929;48.008;10.882;2022-09-20T16:40:00;13.50;99.90
32476;DHT22;18929;48.008;10.882;2022-09-20T16:42:27;14.80;99.90
32476;DHT22;18929;48.008;10.882;2022-09-20T16:44:54;14.00;99.90
32476;DHT22;18929;48.008;10.882;2022-09-20T16:47:21;15.00;99.90